aviador You're here:

KBNO Decoded Metar

BURNS in OR, USA
Report Time2017-10-23 23:53:00
UTC Time2017-10-24 00:08:12
Flight Rules vfr VFR
Wind210° at 03 kt
W.Decomp.*RWY 21: 2.9 kt HW 0.9 kt LCW
RWY 12: 0.9 kt HW 2.9 kt RCW
W.Rank210° ranks 10
Current wind is below 210° avg. (8.3)
Visibility9999 m
Phenomena:N/A
Clouds:N/A
Expected CloudBase > 5,600 ft AGL from Temp-Dew spread
CeilingNone
Temp14°C (ISA +7)
Dew Point00°C (39% RH)
AAT11.0°C
QNH1038 hPa
Density Alt4,252 ft
Elevation4,147 ft
Report Wrong Elevation
Raw Report
KBNO 232353Z AUTO 21003KT 10SM CLR 14/00 A3066 RMK AO2 SLP386
T01390000 10150 20078 56007 TSNO=

Extra information for KBNO:More info

Metar Taf Metar & Taf Last 4 Metars F.Rules Stats Wind Profile Meteogram Temp Stats Airport Information Weather charts Add Link Nearby VenuesMetar ALERT Operation Metar Decoded Social comments

AIRNAV info for KBNO